New Cambria, Kansas
Current Conditions -  °F | °C
As of 12:53 PM on Friday 28 Nov 2014 (Local Time) from KSLN Reporting Station
Clear Clear  
Wind Chill: 62°   Ceiling: Unl
Heat Index: 62°   Visibility: 10mi
Dew Point: 33°   Wind: 13mph
Humidity: 34%   Direction: 210°SSW
Pressure: 29.82"   Gusts: NA
Location:  38.88°N, 97.51°W
Report Text: KSLN 281853Z 21011KT 10SM CLR 17/01 A2982 RMK AO2 SLP098 T01670006
Loading
Personal Weather Stations






























Interactive Weather Map New forecast layout! Learn more

10-Day Weather Forecast

Advertisements
Track Severe Weather on mobile